sensor_id;sensor_type;location;lat;lon;timestamp;pressure;altitude;pressure_sealevel;temperature;humidity
22025;BME280;11176;51.448;6.650;2023-03-22T00:01:44;45462.19;;;-141.29;92.46
22025;BME280;11176;51.448;6.650;2023-03-22T00:04:11;45466.19;;;-141.29;92.33
22025;BME280;11176;51.448;6.650;2023-03-22T00:06:37;45462.19;;;-141.29;92.31
22025;BME280;11176;51.448;6.650;2023-03-22T00:09:04;45466.19;;;-141.29;92.29
22025;BME280;11176;51.448;6.650;2023-03-22T00:11:30;45464.19;;;-141.29;92.50
22025;BME280;11176;51.448;6.650;2023-03-22T00:13:57;45456.19;;;-141.29;92.29
22025;BME280;11176;51.448;6.650;2023-03-22T00:16:24;45462.19;;;-141.29;92.10
22025;BME280;11176;51.448;6.650;2023-03-22T00:18:51;45450.19;;;-141.29;92.40
22025;BME280;11176;51.448;6.650;2023-03-22T00:21:17;45452.19;;;-141.29;92.30
22025;BME280;11176;51.448;6.650;2023-03-22T00:23:44;45454.19;;;-141.29;91.89
22025;BME280;11176;51.448;6.650;2023-03-22T00:26:12;45474.16;;;-141.29;92.14
22025;BME280;11176;51.448;6.650;2023-03-22T00:28:40;45458.19;;;-141.29;91.84
22025;BME280;11176;51.448;6.650;2023-03-22T00:31:07;45450.19;;;-141.29;91.68
22025;BME280;11176;51.448;6.650;2023-03-22T00:33:35;45478.16;;;-141.29;91.62
22025;BME280;11176;51.448;6.650;2023-03-22T00:36:07;45462.19;;;-141.29;91.06
22025;BME280;11176;51.448;6.650;2023-03-22T00:38:34;45468.19;;;-141.29;91.25
22025;BME280;11176;51.448;6.650;2023-03-22T00:41:17;45446.19;;;-141.29;91.16
22025;BME280;11176;51.448;6.650;2023-03-22T00:43:45;45458.19;;;-141.29;91.00
22025;BME280;11176;51.448;6.650;2023-03-22T00:46:13;45454.19;;;-141.29;91.10
22025;BME280;11176;51.448;6.650;2023-03-22T00:48:41;45442.19;;;-141.29;91.01
22025;BME280;11176;51.448;6.650;2023-03-22T00:51:08;45446.19;;;-141.29;91.12
22025;BME280;11176;51.448;6.650;2023-03-22T00:53:38;45464.19;;;-141.29;91.00
22025;BME280;11176;51.448;6.650;2023-03-22T00:56:09;45438.19;;;-141.29;91.12
22025;BME280;11176;51.448;6.650;2023-03-22T00:58:46;45450.19;;;-141.29;91.38
22025;BME280;11176;51.448;6.650;2023-03-22T01:01:13;45466.19;;;-141.29;91.42
22025;BME280;11176;51.448;6.650;2023-03-22T01:03:41;45454.19;;;-141.29;91.33
22025;BME280;11176;51.448;6.650;2023-03-22T01:06:11;45466.19;;;-141.29;91.43
22025;BME280;11176;51.448;6.650;2023-03-22T01:08:38;45464.19;;;-141.29;91.41
22025;BME280;11176;51.448;6.650;2023-03-22T01:11:06;45450.19;;;-141.29;91.28
22025;BME280;11176;51.448;6.650;2023-03-22T01:13:34;45462.19;;;-141.29;91.50
22025;BME280;11176;51.448;6.650;2023-03-22T01:16:05;45454.19;;;-141.29;91.22
22025;BME280;11176;51.448;6.650;2023-03-22T01:18:33;45462.19;;;-141.29;91.10
22025;BME280;11176;51.448;6.650;2023-03-22T01:21:00;45472.16;;;-141.29;91.18
22025;BME280;11176;51.448;6.650;2023-03-22T01:23:27;45438.19;;;-141.29;91.34
22025;BME280;11176;51.448;6.650;2023-03-22T01:25:54;45458.19;;;-141.29;91.58
22025;BME280;11176;51.448;6.650;2023-03-22T01:28:20;45460.19;;;-141.29;91.67
22025;BME280;11176;51.448;6.650;2023-03-22T01:30:47;45458.19;;;-141.29;91.66
22025;BME280;11176;51.448;6.650;2023-03-22T01:33:13;45458.19;;;-141.29;91.39
22025;BME280;11176;51.448;6.650;2023-03-22T01:35:40;45458.19;;;-141.29;91.52
22025;BME280;11176;51.448;6.650;2023-03-22T01:38:08;45454.19;;;-141.29;91.81
22025;BME280;11176;51.448;6.650;2023-03-22T01:40:40;45452.19;;;-141.29;91.93
22025;BME280;11176;51.448;6.650;2023-03-22T01:43:12;45468.19;;;-141.29;91.96
22025;BME280;11176;51.448;6.650;2023-03-22T01:50:59;45474.16;;;-141.29;92.11
22025;BME280;11176;51.448;6.650;2023-03-22T01:53:55;45462.19;;;-141.29;92.03
22025;BME280;11176;51.448;6.650;2023-03-22T01:56:24;45468.19;;;-141.29;92.21
22025;BME280;11176;51.448;6.650;2023-03-22T01:58:53;45454.19;;;-141.29;92.20
22025;BME280;11176;51.448;6.650;2023-03-22T02:01:28;45466.19;;;-141.29;92.07
22025;BME280;11176;51.448;6.650;2023-03-22T02:04:03;45466.19;;;-141.29;92.52
22025;BME280;11176;51.448;6.650;2023-03-22T02:06:33;45466.19;;;-141.29;92.69
22025;BME280;11176;51.448;6.650;2023-03-22T02:09:10;45476.16;;;-141.29;93.24
22025;BME280;11176;51.448;6.650;2023-03-22T02:11:40;45446.19;;;-141.29;93.21
22025;BME280;11176;51.448;6.650;2023-03-22T02:14:45;45462.19;;;-141.29;93.70
22025;BME280;11176;51.448;6.650;2023-03-22T02:23:17;45470.19;;;-141.29;94.12
22025;BME280;11176;51.448;6.650;2023-03-22T02:28:35;45458.19;;;-141.29;94.43
22025;BME280;11176;51.448;6.650;2023-03-22T02:31:16;45482.16;;;-141.29;94.78
22025;BME280;11176;51.448;6.650;2023-03-22T02:36:36;45462.19;;;-141.29;94.49
22025;BME280;11176;51.448;6.650;2023-03-22T02:39:24;45488.16;;;-141.29;94.84
22025;BME280;11176;51.448;6.650;2023-03-22T02:44:30;45490.16;;;-141.29;95.05
22025;BME280;11176;51.448;6.650;2023-03-22T02:47:11;45480.16;;;-141.29;95.24
22025;BME280;11176;51.448;6.650;2023-03-22T02:49:44;45482.16;;;-141.29;95.28
22025;BME280;11176;51.448;6.650;2023-03-22T02:52:22;45490.16;;;-141.29;95.29
22025;BME280;11176;51.448;6.650;2023-03-22T02:54:57;45474.16;;;-141.29;95.51
22025;BME280;11176;51.448;6.650;2023-03-22T03:00:17;45466.19;;;-141.29;95.10
22025;BME280;11176;51.448;6.650;2023-03-22T03:02:48;45486.16;;;-141.29;95.10
22025;BME280;11176;51.448;6.650;2023-03-22T03:05:17;45482.16;;;-141.29;95.22
22025;BME280;11176;51.448;6.650;2023-03-22T03:07:49;45470.19;;;-141.29;95.40
22025;BME280;11176;51.448;6.650;2023-03-22T03:10:19;45474.16;;;-141.29;95.28
22025;BME280;11176;51.448;6.650;2023-03-22T03:12:47;45462.19;;;-141.29;95.28
22025;BME280;11176;51.448;6.650;2023-03-22T03:15:17;45474.16;;;-141.29;95.21
22025;BME280;11176;51.448;6.650;2023-03-22T03:18:09;45482.16;;;-141.29;95.24
22025;BME280;11176;51.448;6.650;2023-03-22T03:20:53;45474.16;;;-141.29;95.58
22025;BME280;11176;51.448;6.650;2023-03-22T03:23:23;45490.16;;;-141.29;95.41
22025;BME280;11176;51.448;6.650;2023-03-22T03:28:35;45466.19;;;-141.29;95.49
22025;BME280;11176;51.448;6.650;2023-03-22T03:31:12;45482.16;;;-141.29;95.49
22025;BME280;11176;51.448;6.650;2023-03-22T03:36:55;45464.19;;;-141.29;95.81
22025;BME280;11176;51.448;6.650;2023-03-22T03:39:24;45498.16;;;-141.29;95.77
22025;BME280;11176;51.448;6.650;2023-03-22T03:41:54;45498.16;;;-141.29;95.98
22025;BME280;11176;51.448;6.650;2023-03-22T03:44:22;45482.16;;;-141.29;96.12
22025;BME280;11176;51.448;6.650;2023-03-22T03:46:51;45470.19;;;-141.29;95.99
22025;BME280;11176;51.448;6.650;2023-03-22T03:49:20;45498.16;;;-141.29;95.84
22025;BME280;11176;51.448;6.650;2023-03-22T03:51:53;45490.16;;;-141.29;95.73
22025;BME280;11176;51.448;6.650;2023-03-22T03:54:21;45482.16;;;-141.29;95.96
22025;BME280;11176;51.448;6.650;2023-03-22T03:56:48;45498.16;;;-141.29;95.98
22025;BME280;11176;51.448;6.650;2023-03-22T03:59:15;45476.16;;;-141.29;96.21
22025;BME280;11176;51.448;6.650;2023-03-22T04:01:43;45490.16;;;-141.29;96.42
22025;BME280;11176;51.448;6.650;2023-03-22T04:04:26;45478.16;;;-141.29;96.62
22025;BME280;11176;51.448;6.650;2023-03-22T04:07:01;45482.16;;;-141.29;96.41
22025;BME280;11176;51.448;6.650;2023-03-22T04:09:31;45490.16;;;-141.29;96.42
22025;BME280;11176;51.448;6.650;2023-03-22T04:12:07;45490.16;;;-141.29;96.74
22025;BME280;11176;51.448;6.650;2023-03-22T04:14:37;45502.16;;;-141.29;96.60
22025;BME280;11176;51.448;6.650;2023-03-22T04:17:12;45486.16;;;-141.29;96.67
22025;BME280;11176;51.448;6.650;2023-03-22T04:19:39;45502.16;;;-141.29;96.93
22025;BME280;11176;51.448;6.650;2023-03-22T04:22:07;45498.16;;;-141.29;96.83
22025;BME280;11176;51.448;6.650;2023-03-22T04:24:40;45492.16;;;-141.29;96.93
22025;BME280;11176;51.448;6.650;2023-03-22T04:27:07;45502.16;;;-141.29;96.40
22025;BME280;11176;51.448;6.650;2023-03-22T04:29:41;45488.16;;;-141.29;97.07
22025;BME280;11176;51.448;6.650;2023-03-22T04:32:39;45498.16;;;-141.29;97.30
22025;BME280;11176;51.448;6.650;2023-03-22T04:35:06;45486.16;;;-141.29;97.23
22025;BME280;11176;51.448;6.650;2023-03-22T04:37:33;45486.16;;;-141.29;97.30
22025;BME280;11176;51.448;6.650;2023-03-22T04:40:10;45488.16;;;-141.29;97.56
22025;BME280;11176;51.448;6.650;2023-03-22T04:42:54;45486.16;;;-141.29;97.52
22025;BME280;11176;51.448;6.650;2023-03-22T04:45:40;45484.16;;;-141.29;97.57
22025;BME280;11176;51.448;6.650;2023-03-22T04:48:08;45490.16;;;-141.29;97.61
22025;BME280;11176;51.448;6.650;2023-03-22T04:50:38;45496.16;;;-141.29;97.68
22025;BME280;11176;51.448;6.650;2023-03-22T04:53:06;45486.16;;;-141.29;97.57
22025;BME280;11176;51.448;6.650;2023-03-22T04:55:33;45494.16;;;-141.29;97.63
22025;BME280;11176;51.448;6.650;2023-03-22T04:58:00;45496.16;;;-141.29;97.92
22025;BME280;11176;51.448;6.650;2023-03-22T05:00:27;45490.16;;;-141.29;97.81
22025;BME280;11176;51.448;6.650;2023-03-22T05:02:56;45488.16;;;-141.29;98.24
22025;BME280;11176;51.448;6.650;2023-03-22T05:05:32;45502.16;;;-141.29;98.33
22025;BME280;11176;51.448;6.650;2023-03-22T05:08:01;45506.16;;;-141.29;98.24
22025;BME280;11176;51.448;6.650;2023-03-22T05:10:27;45506.16;;;-141.29;98.01
22025;BME280;11176;51.448;6.650;2023-03-22T05:12:55;45498.16;;;-141.29;98.08
22025;BME280;11176;51.448;6.650;2023-03-22T05:15:26;45510.16;;;-141.29;98.19
22025;BME280;11176;51.448;6.650;2023-03-22T05:17:52;45490.16;;;-141.29;98.28
22025;BME280;11176;51.448;6.650;2023-03-22T05:20:21;45502.16;;;-141.29;98.28
22025;BME280;11176;51.448;6.650;2023-03-22T05:22:59;45480.16;;;-141.29;98.15
22025;BME280;11176;51.448;6.650;2023-03-22T05:25:29;45500.16;;;-141.29;98.11
22025;BME280;11176;51.448;6.650;2023-03-22T05:27:56;45484.16;;;-141.29;98.15
22025;BME280;11176;51.448;6.650;2023-03-22T05:30:42;45494.16;;;-141.29;98.13
22025;BME280;11176;51.448;6.650;2023-03-22T05:33:25;45498.16;;;-141.29;97.84
22025;BME280;11176;51.448;6.650;2023-03-22T05:35:55;45482.16;;;-141.29;97.75
22025;BME280;11176;51.448;6.650;2023-03-22T05:38:22;45508.16;;;-141.29;97.79
22025;BME280;11176;51.448;6.650;2023-03-22T05:40:53;45502.16;;;-141.29;97.90
22025;BME280;11176;51.448;6.650;2023-03-22T05:43:19;45498.16;;;-141.29;97.77
22025;BME280;11176;51.448;6.650;2023-03-22T05:45:48;45504.16;;;-141.29;97.97
22025;BME280;11176;51.448;6.650;2023-03-22T05:48:34;45492.16;;;-141.29;97.81
22025;BME280;11176;51.448;6.650;2023-03-22T05:51:05;45510.16;;;-141.29;97.61
22025;BME280;11176;51.448;6.650;2023-03-22T05:53:33;45486.16;;;-141.29;97.83
22025;BME280;11176;51.448;6.650;2023-03-22T05:56:07;45466.19;;;-141.29;97.80
22025;BME280;11176;51.448;6.650;2023-03-22T05:58:36;45484.16;;;-141.29;97.63
22025;BME280;11176;51.448;6.650;2023-03-22T06:01:11;45498.16;;;-141.29;97.72
22025;BME280;11176;51.448;6.650;2023-03-22T06:03:43;45490.16;;;-141.29;97.60
22025;BME280;11176;51.448;6.650;2023-03-22T06:06:39;45504.16;;;-141.29;97.41
22025;BME280;11176;51.448;6.650;2023-03-22T06:09:12;45482.16;;;-141.29;97.34
22025;BME280;11176;51.448;6.650;2023-03-22T06:11:46;45486.16;;;-141.29;97.20
22025;BME280;11176;51.448;6.650;2023-03-22T06:14:14;45482.16;;;-141.29;97.01
22025;BME280;11176;51.448;6.650;2023-03-22T06:16:56;45492.16;;;-141.29;96.88
22025;BME280;11176;51.448;6.650;2023-03-22T06:19:23;45506.16;;;-141.29;96.85
22025;BME280;11176;51.448;6.650;2023-03-22T06:21:53;45490.16;;;-141.29;96.80
22025;BME280;11176;51.448;6.650;2023-03-22T06:24:22;45484.16;;;-141.29;96.96
22025;BME280;11176;51.448;6.650;2023-03-22T06:26:49;45498.16;;;-141.29;96.89
22025;BME280;11176;51.448;6.650;2023-03-22T06:29:16;45486.16;;;-141.29;96.98
22025;BME280;11176;51.448;6.650;2023-03-22T06:31:43;45498.16;;;-141.29;96.55
22025;BME280;11176;51.448;6.650;2023-03-22T06:34:09;45472.16;;;-141.29;96.53
22025;BME280;11176;51.448;6.650;2023-03-22T06:36:39;45470.19;;;-141.29;96.37
22025;BME280;11176;51.448;6.650;2023-03-22T06:39:11;45482.16;;;-141.29;96.10
22025;BME280;11176;51.448;6.650;2023-03-22T06:41:41;45498.16;;;-141.29;95.91
22025;BME280;11176;51.448;6.650;2023-03-22T06:44:08;45478.16;;;-141.29;95.84
22025;BME280;11176;51.448;6.650;2023-03-22T06:47:07;45480.16;;;-141.29;95.52
22025;BME280;11176;51.448;6.650;2023-03-22T06:49:51;45478.16;;;-141.29;95.35
22025;BME280;11176;51.448;6.650;2023-03-22T06:52:22;45460.19;;;-141.29;95.13
22025;BME280;11176;51.448;6.650;2023-03-22T06:54:50;45476.16;;;-141.29;95.37
22025;BME280;11176;51.448;6.650;2023-03-22T06:57:18;45476.16;;;-141.29;94.75
22025;BME280;11176;51.448;6.650;2023-03-22T06:59:44;45486.16;;;-141.29;94.50
22025;BME280;11176;51.448;6.650;2023-03-22T07:02:11;45496.16;;;-141.29;94.18
22025;BME280;11176;51.448;6.650;2023-03-22T07:04:41;45476.16;;;-141.29;94.57
22025;BME280;11176;51.448;6.650;2023-03-22T07:07:08;45466.19;;;-141.29;94.25
22025;BME280;11176;51.448;6.650;2023-03-22T07:09:34;45466.19;;;-141.29;94.08
22025;BME280;11176;51.448;6.650;2023-03-22T07:12:01;45482.16;;;-141.29;93.79
22025;BME280;11176;51.448;6.650;2023-03-22T07:14:30;45476.16;;;-141.29;93.45
22025;BME280;11176;51.448;6.650;2023-03-22T07:17:05;45474.16;;;-141.29;93.43
22025;BME280;11176;51.448;6.650;2023-03-22T07:19:32;45472.16;;;-141.29;92.81
22025;BME280;11176;51.448;6.650;2023-03-22T07:22:04;45456.19;;;-141.29;92.31
22025;BME280;11176;51.448;6.650;2023-03-22T07:24:31;45470.19;;;-141.29;92.56
22025;BME280;11176;51.448;6.650;2023-03-22T07:27:00;45472.16;;;-141.29;91.91
22025;BME280;11176;51.448;6.650;2023-03-22T07:29:27;45474.16;;;-141.29;91.12
22025;BME280;11176;51.448;6.650;2023-03-22T07:31:54;45468.19;;;-141.29;91.26
22025;BME280;11176;51.448;6.650;2023-03-22T07:34:25;45468.19;;;-141.29;91.20
22025;BME280;11176;51.448;6.650;2023-03-22T07:37:00;45456.19;;;-141.29;90.87
22025;BME280;11176;51.448;6.650;2023-03-22T07:39:29;45470.19;;;-141.29;90.58
22025;BME280;11176;51.448;6.650;2023-03-22T07:41:56;45446.19;;;-141.29;89.48
22025;BME280;11176;51.448;6.650;2023-03-22T07:44:23;45462.19;;;-141.29;88.58
22025;BME280;11176;51.448;6.650;2023-03-22T07:47:10;45446.19;;;-141.29;87.27
22025;BME280;11176;51.448;6.650;2023-03-22T07:49:44;45448.19;;;-141.29;87.24
22025;BME280;11176;51.448;6.650;2023-03-22T07:52:14;45452.19;;;-141.29;86.60
22025;BME280;11176;51.448;6.650;2023-03-22T07:54:41;45450.19;;;-141.29;86.68
22025;BME280;11176;51.448;6.650;2023-03-22T07:57:08;45470.19;;;-141.29;86.76
22025;BME280;11176;51.448;6.650;2023-03-22T07:59:41;45462.19;;;-141.29;86.05
22025;BME280;11176;51.448;6.650;2023-03-22T08:02:10;45454.19;;;-141.29;85.90
22025;BME280;11176;51.448;6.650;2023-03-22T08:04:43;45454.19;;;-141.29;85.86
22025;BME280;11176;51.448;6.650;2023-03-22T08:07:16;45462.19;;;-141.29;85.53
22025;BME280;11176;51.448;6.650;2023-03-22T08:09:44;45454.19;;;-141.29;85.66
22025;BME280;11176;51.448;6.650;2023-03-22T08:12:11;45450.19;;;-141.29;82.68
22025;BME280;11176;51.448;6.650;2023-03-22T08:14:38;45466.19;;;-141.29;82.59
22025;BME280;11176;51.448;6.650;2023-03-22T08:17:12;45458.19;;;-141.29;82.97
22025;BME280;11176;51.448;6.650;2023-03-22T08:19:38;45460.19;;;-141.29;83.74
22025;BME280;11176;51.448;6.650;2023-03-22T08:22:08;45458.19;;;-141.29;83.63
22025;BME280;11176;51.448;6.650;2023-03-22T08:24:55;45464.19;;;-141.29;83.49
22025;BME280;11176;51.448;6.650;2023-03-22T08:27:25;45434.19;;;-141.29;82.76
22025;BME280;11176;51.448;6.650;2023-03-22T08:29:54;45458.19;;;-141.29;83.28
22025;BME280;11176;51.448;6.650;2023-03-22T08:32:21;45482.16;;;-141.29;82.80
22025;BME280;11176;51.448;6.650;2023-03-22T08:34:47;45458.19;;;-141.29;82.84
22025;BME280;11176;51.448;6.650;2023-03-22T08:37:14;45470.19;;;-141.29;82.74
22025;BME280;11176;51.448;6.650;2023-03-22T08:39:43;45448.19;;;-141.29;82.92
22025;BME280;11176;51.448;6.650;2023-03-22T08:42:32;45466.19;;;-141.29;83.20
22025;BME280;11176;51.448;6.650;2023-03-22T08:45:01;45446.19;;;-141.29;82.79
22025;BME280;11176;51.448;6.650;2023-03-22T08:47:28;45446.19;;;-141.29;82.64
22025;BME280;11176;51.448;6.650;2023-03-22T08:49:59;45438.19;;;-141.29;82.48
22025;BME280;11176;51.448;6.650;2023-03-22T08:52:41;45434.19;;;-141.29;82.17
22025;BME280;11176;51.448;6.650;2023-03-22T08:55:24;45450.19;;;-141.29;81.76
22025;BME280;11176;51.448;6.650;2023-03-22T08:58:13;45462.19;;;-141.29;81.57
22025;BME280;11176;51.448;6.650;2023-03-22T09:00:53;45474.16;;;-141.29;82.13
22025;BME280;11176;51.448;6.650;2023-03-22T09:03:42;45438.19;;;-141.29;81.72
22025;BME280;11176;51.448;6.650;2023-03-22T09:06:09;45450.19;;;-141.29;78.50
22025;BME280;11176;51.448;6.650;2023-03-22T09:08:38;45460.19;;;-141.29;78.14
22025;BME280;11176;51.448;6.650;2023-03-22T09:11:10;45450.19;;;-141.29;78.21
22025;BME280;11176;51.448;6.650;2023-03-22T09:13:37;45438.19;;;-141.29;78.17
22025;BME280;11176;51.448;6.650;2023-03-22T09:16:05;45432.19;;;-141.29;76.95
22025;BME280;11176;51.448;6.650;2023-03-22T09:18:35;45414.22;;;-141.29;75.47
22025;BME280;11176;51.448;6.650;2023-03-22T09:21:09;45434.19;;;-141.29;75.05
22025;BME280;11176;51.448;6.650;2023-03-22T09:23:44;45432.19;;;-141.29;76.24
22025;BME280;11176;51.448;6.650;2023-03-22T09:26:15;45450.19;;;-141.29;75.97
22025;BME280;11176;51.448;6.650;2023-03-22T09:28:41;45446.19;;;-141.29;75.71
22025;BME280;11176;51.448;6.650;2023-03-22T09:31:10;45444.19;;;-141.29;76.24
22025;BME280;11176;51.448;6.650;2023-03-22T09:33:39;45438.19;;;-141.29;76.56
22025;BME280;11176;51.448;6.650;2023-03-22T09:36:08;45438.19;;;-141.29;76.57
22025;BME280;11176;51.448;6.650;2023-03-22T09:38:34;45438.19;;;-141.29;76.52
22025;BME280;11176;51.448;6.650;2023-03-22T09:41:04;45450.19;;;-141.29;77.36
22025;BME280;11176;51.448;6.650;2023-03-22T09:43:41;45442.19;;;-141.29;75.90
22025;BME280;11176;51.448;6.650;2023-03-22T09:46:15;45444.19;;;-141.29;76.27
22025;BME280;11176;51.448;6.650;2023-03-22T09:48:43;45424.22;;;-141.29;76.04
22025;BME280;11176;51.448;6.650;2023-03-22T09:53:48;45438.19;;;-141.29;75.24
22025;BME280;11176;51.448;6.650;2023-03-22T09:56:26;45440.19;;;-141.29;73.17
22025;BME280;11176;51.448;6.650;2023-03-22T10:01:54;45436.19;;;-141.29;73.88
22025;BME280;11176;51.448;6.650;2023-03-22T10:07:23;45410.22;;;-141.29;72.91
22025;BME280;11176;51.448;6.650;2023-03-22T10:10:16;45442.19;;;-141.29;71.36
22025;BME280;11176;51.448;6.650;2023-03-22T10:12:49;45420.22;;;-141.29;72.14
22025;BME280;11176;51.448;6.650;2023-03-22T10:15:20;45434.19;;;-141.29;72.97
22025;BME280;11176;51.448;6.650;2023-03-22T10:17:52;45418.22;;;-141.29;71.47
22025;BME280;11176;51.448;6.650;2023-03-22T10:20:36;45424.22;;;-141.29;71.12
22025;BME280;11176;51.448;6.650;2023-03-22T10:23:10;45416.22;;;-141.29;71.34
22025;BME280;11176;51.448;6.650;2023-03-22T10:25:40;45424.22;;;-141.29;71.05
22025;BME280;11176;51.448;6.650;2023-03-22T10:28:33;45440.19;;;-141.29;71.00
22025;BME280;11176;51.448;6.650;2023-03-22T10:31:02;45402.22;;;-141.29;70.42
22025;BME280;11176;51.448;6.650;2023-03-22T10:33:38;45422.22;;;-141.29;70.50
22025;BME280;11176;51.448;6.650;2023-03-22T10:36:09;45422.22;;;-141.29;70.85
22025;BME280;11176;51.448;6.650;2023-03-22T10:38:44;45434.19;;;-141.29;70.41
22025;BME280;11176;51.448;6.650;2023-03-22T10:41:15;45426.22;;;-141.29;70.72
22025;BME280;11176;51.448;6.650;2023-03-22T10:43:43;45418.22;;;-141.29;70.39
22025;BME280;11176;51.448;6.650;2023-03-22T10:46:15;45428.22;;;-141.29;69.95
22025;BME280;11176;51.448;6.650;2023-03-22T10:48:45;45422.22;;;-141.29;70.24
22025;BME280;11176;51.448;6.650;2023-03-22T10:51:41;45418.22;;;-141.29;70.15
22025;BME280;11176;51.448;6.650;2023-03-22T10:54:14;45426.22;;;-141.29;70.04
22025;BME280;11176;51.448;6.650;2023-03-22T10:56:41;45412.22;;;-141.29;69.41
22025;BME280;11176;51.448;6.650;2023-03-22T10:59:46;45410.22;;;-141.29;69.00
22025;BME280;11176;51.448;6.650;2023-03-22T11:02:31;45424.22;;;-141.29;68.53
22025;BME280;11176;51.448;6.650;2023-03-22T11:05:00;45420.22;;;-141.29;68.56
22025;BME280;11176;51.448;6.650;2023-03-22T11:12:40;45414.22;;;-141.29;69.62
22025;BME280;11176;51.448;6.650;2023-03-22T11:15:26;45414.22;;;-141.29;69.29
22025;BME280;11176;51.448;6.650;2023-03-22T11:17:57;45424.22;;;-141.29;69.80
22025;BME280;11176;51.448;6.650;2023-03-22T11:20:25;45402.22;;;-141.29;69.07
22025;BME280;11176;51.448;6.650;2023-03-22T11:22:59;45414.22;;;-141.29;69.25
22025;BME280;11176;51.448;6.650;2023-03-22T11:25:29;45412.22;;;-141.29;68.82
22025;BME280;11176;51.448;6.650;2023-03-22T11:28:13;45428.22;;;-141.29;68.97
22025;BME280;11176;51.448;6.650;2023-03-22T11:30:57;45418.22;;;-141.29;70.04
22025;BME280;11176;51.448;6.650;2023-03-22T11:33:24;45410.22;;;-141.29;69.97
22025;BME280;11176;51.448;6.650;2023-03-22T11:35:56;45434.19;;;-141.29;69.55
22025;BME280;11176;51.448;6.650;2023-03-22T11:40:59;45430.22;;;-141.29;70.29
22025;BME280;11176;51.448;6.650;2023-03-22T11:43:32;45418.22;;;-141.29;70.43
22025;BME280;11176;51.448;6.650;2023-03-22T11:46:00;45410.22;;;-141.29;70.00
22025;BME280;11176;51.448;6.650;2023-03-22T11:48:29;45402.22;;;-141.29;69.73
22025;BME280;11176;51.448;6.650;2023-03-22T11:51:07;45410.22;;;-141.29;69.31
22025;BME280;11176;51.448;6.650;2023-03-22T11:53:37;45412.22;;;-141.29;69.25
22025;BME280;11176;51.448;6.650;2023-03-22T11:56:05;45424.22;;;-141.29;68.63
22025;BME280;11176;51.448;6.650;2023-03-22T12:01:02;45414.22;;;-141.29;67.73
22025;BME280;11176;51.448;6.650;2023-03-22T12:03:33;45426.22;;;-141.29;67.64
22025;BME280;11176;51.448;6.650;2023-03-22T12:06:14;45414.22;;;-141.29;67.92
22025;BME280;11176;51.448;6.650;2023-03-22T12:08:53;45426.22;;;-141.29;68.65
22025;BME280;11176;51.448;6.650;2023-03-22T12:11:35;45422.22;;;-141.29;67.20
22025;BME280;11176;51.448;6.650;2023-03-22T12:14:14;45418.22;;;-141.29;66.47
22025;BME280;11176;51.448;6.650;2023-03-22T12:16:51;45422.22;;;-141.29;66.54
22025;BME280;11176;51.448;6.650;2023-03-22T12:22:13;45418.22;;;-141.29;65.89
22025;BME280;11176;51.448;6.650;2023-03-22T12:24:41;45426.22;;;-141.29;65.99
22025;BME280;11176;51.448;6.650;2023-03-22T12:27:20;45422.22;;;-141.29;67.27
22025;BME280;11176;51.448;6.650;2023-03-22T12:30:12;45410.22;;;-141.29;69.72
22025;BME280;11176;51.448;6.650;2023-03-22T12:32:42;45410.22;;;-141.29;70.08
22025;BME280;11176;51.448;6.650;2023-03-22T12:35:16;45418.22;;;-141.29;69.31
22025;BME280;11176;51.448;6.650;2023-03-22T12:37:47;45420.22;;;-141.29;69.29
22025;BME280;11176;51.448;6.650;2023-03-22T12:40:27;45406.22;;;-141.29;69.34
22025;BME280;11176;51.448;6.650;2023-03-22T12:43:06;45416.22;;;-141.29;70.17
22025;BME280;11176;51.448;6.650;2023-03-22T12:45:40;45410.22;;;-141.29;69.83
22025;BME280;11176;51.448;6.650;2023-03-22T12:48:15;45414.22;;;-141.29;69.49
22025;BME280;11176;51.448;6.650;2023-03-22T12:50:52;45426.22;;;-141.29;69.60
22025;BME280;11176;51.448;6.650;2023-03-22T12:53:21;45410.22;;;-141.29;68.73
22025;BME280;11176;51.448;6.650;2023-03-22T12:55:52;45426.22;;;-141.29;69.30
22025;BME280;11176;51.448;6.650;2023-03-22T12:58:22;45436.19;;;-141.29;69.32
22025;BME280;11176;51.448;6.650;2023-03-22T13:00:57;45426.22;;;-141.29;69.73
22025;BME280;11176;51.448;6.650;2023-03-22T13:03:35;45408.22;;;-141.29;69.56
22025;BME280;11176;51.448;6.650;2023-03-22T13:06:05;45408.22;;;-141.29;69.47
22025;BME280;11176;51.448;6.650;2023-03-22T13:25:26;45414.22;;;-141.29;70.90
22025;BME280;11176;51.448;6.650;2023-03-22T13:27:59;45410.22;;;-141.29;71.00
22025;BME280;11176;51.448;6.650;2023-03-22T13:30:34;45416.22;;;-141.29;70.75
22025;BME280;11176;51.448;6.650;2023-03-22T13:33:13;45410.22;;;-141.29;70.91
22025;BME280;11176;51.448;6.650;2023-03-22T13:40:51;45386.25;;;-141.29;70.75
22025;BME280;11176;51.448;6.650;2023-03-22T13:43:25;45410.22;;;-141.29;71.16
22025;BME280;11176;51.448;6.650;2023-03-22T13:56:50;45402.22;;;-141.29;71.05
22025;BME280;11176;51.448;6.650;2023-03-22T14:02:02;45422.22;;;-141.29;70.71
22025;BME280;11176;51.448;6.650;2023-03-22T14:04:46;45400.22;;;-141.29;71.32
22025;BME280;11176;51.448;6.650;2023-03-22T14:09:48;45410.22;;;-141.29;70.39
22025;BME280;11176;51.448;6.650;2023-03-22T14:14:54;45418.22;;;-141.29;71.01
22025;BME280;11176;51.448;6.650;2023-03-22T14:18:01;45390.25;;;-141.29;70.84
22025;BME280;11176;51.448;6.650;2023-03-22T14:20:34;45402.22;;;-141.29;70.82
22025;BME280;11176;51.448;6.650;2023-03-22T14:23:04;45386.25;;;-141.29;70.69
22025;BME280;11176;51.448;6.650;2023-03-22T14:25:32;45410.22;;;-141.29;70.54
22025;BME280;11176;51.448;6.650;2023-03-22T14:27:59;45406.22;;;-141.29;69.93
22025;BME280;11176;51.448;6.650;2023-03-22T14:32:59;45394.22;;;-141.29;69.36
22025;BME280;11176;51.448;6.650;2023-03-22T14:36:05;45398.22;;;-141.29;69.41
22025;BME280;11176;51.448;6.650;2023-03-22T14:38:35;45402.22;;;-141.29;69.78
22025;BME280;11176;51.448;6.650;2023-03-22T14:41:13;45400.22;;;-141.29;69.66